Granite, Oregon
Current Conditions -  °F | °C
As of 2:53 PM on Friday 28 Nov 2014 (Local Time) from KBKE Reporting Station
Broken Clouds Broken Clouds  
Wind Chill: 51°   Ceiling: 5500
Heat Index: 51°   Visibility: 10mi
Dew Point: 34°   Wind: 13mph
Humidity: 52%   Direction: 80°E
Pressure: 29.61"   Gusts: NA
Location:  44.7337°N, 118.267°W
Report Text: KBKE 282253Z AUTO 08011KT 10SM SCT047 BKN055 11/01 A2961 RMK AO2 SLP022 T01060011
Loading
Personal Weather Stations






























Interactive Weather Map New forecast layout! Learn more

10-Day Weather Forecast

Advertisements
Track Severe Weather on mobile